Time;durP1;ratioP1;P1;durP2;ratioP2;P2;SDS_P1;SDS_P2;PMS_P1;PMS_P2;Temp;Humidity;BMP_temperature;BMP_pressure;BME280_temperature;BME280_humidity;BME280_pressure;Samples;Min_cycle;Max_cycle;Signal;HPM_P1;HPM_P2
2022/06/27 00:02:28;;;;;;;2.53;2.25;;;;;;;;;;5036387;28;20064;-88
2022/06/27 00:04:55;;;;;;;5.65;2.10;;;;;;;;;;5035928;28;20076;-88
2022/06/27 00:07:22;;;;;;;2.40;2.20;;;;;;;;;;5035926;28;20044;-87
2022/06/27 00:09:49;;;;;;;2.25;2.15;;;;;;;;;;5043340;23;20049;-90
2022/06/27 00:12:17;;;;;;;2.42;2.33;;;;;;;;;;5036411;28;20123;-90
2022/06/27 00:14:44;;;;;;;2.38;2.28;;;;;;;;;;5036240;28;20095;-89
2022/06/27 00:17:11;;;;;;;2.40;2.30;;;;;;;;;;5035896;28;20049;-89
2022/06/27 00:19:38;;;;;;;2.72;2.53;;;;;;;;;;5036257;28;20083;-89
2022/06/27 00:22:05;;;;;;;2.47;2.38;;;;;;;;;;5036174;28;20595;-89
2022/06/27 00:24:33;;;;;;;3.13;2.30;;;;;;;;;;5035802;28;20141;-89
2022/06/27 00:27:00;;;;;;;2.30;2.20;;;;;;;;;;5053305;28;20080;-89
2022/06/27 00:29:27;;;;;;;2.20;2.10;;;;;;;;;;5036076;28;20141;-89
2022/06/27 00:31:55;;;;;;;2.58;2.47;;;;;;;;;;5035936;28;20091;-89
2022/06/27 00:34:22;;;;;;;2.85;2.67;;;;;;;;;;5053216;28;20059;-88
2022/06/27 00:36:50;;;;;;;2.78;2.22;;;;;;;;;;5035472;28;20051;-89
2022/06/27 00:39:17;;;;;;;3.58;2.40;;;;;;;;;;5035019;28;20044;-89
2022/06/27 00:41:44;;;;;;;12.32;3.17;;;;;;;;;;5035873;28;20063;-89
2022/06/27 00:44:11;;;;;;;2.75;2.55;;;;;;;;;;5035525;28;20136;-89
2022/06/27 00:46:38;;;;;;;5.47;2.55;;;;;;;;;;5053036;28;20489;-89
2022/06/27 00:49:05;;;;;;;5.57;2.50;;;;;;;;;;5035293;28;20105;-88
2022/06/27 00:51:33;;;;;;;4.43;2.70;;;;;;;;;;5035654;28;20129;-89
2022/06/27 00:54:02;;;;;;;4.82;2.17;;;;;;;;;;5035397;28;20557;-89
2022/06/27 00:56:29;;;;;;;2.45;2.15;;;;;;;;;;5035358;28;20140;-89
2022/06/27 00:58:56;;;;;;;3.95;2.78;;;;;;;;;;5035688;28;20408;-89
2022/06/27 01:01:23;;;;;;;2.60;2.47;;;;;;;;;;5052992;28;20076;-88
2022/06/27 01:03:51;;;;;;;4.47;2.47;;;;;;;;;;5035403;28;20076;-89
2022/06/27 01:06:18;;;;;;;2.25;2.15;;;;;;;;;;5035267;28;20127;-89
2022/06/27 01:08:45;;;;;;;2.50;2.33;;;;;;;;;;5035277;28;20383;-88
2022/06/27 01:11:13;;;;;;;2.75;2.53;;;;;;;;;;5035610;28;20446;-89
2022/06/27 01:13:40;;;;;;;2.42;2.33;;;;;;;;;;5052821;28;20136;-89
2022/06/27 01:16:07;;;;;;;6.80;2.65;;;;;;;;;;5052728;28;20057;-89
2022/06/27 01:18:34;;;;;;;2.60;2.40;;;;;;;;;;5052730;28;20049;-89
2022/06/27 01:21:02;;;;;;;3.90;2.70;;;;;;;;;;5052728;28;20063;-89
2022/06/27 01:23:29;;;;;;;2.70;2.55;;;;;;;;;;5052958;28;20057;-89
2022/06/27 01:25:56;;;;;;;4.57;2.60;;;;;;;;;;5035492;28;20076;-88
2022/06/27 01:28:24;;;;;;;5.95;2.70;;;;;;;;;;5036996;28;20048;-89
2022/06/27 01:30:51;;;;;;;2.80;2.70;;;;;;;;;;5038930;28;20053;-89
2022/06/27 01:33:18;;;;;;;2.63;2.42;;;;;;;;;;5039011;28;20106;-89
2022/06/27 01:35:45;;;;;;;2.90;2.80;;;;;;;;;;5056624;28;20132;-89
2022/06/27 01:38:13;;;;;;;3.10;2.80;;;;;;;;;;5038669;28;20536;-89
2022/06/27 01:40:40;;;;;;;2.60;2.50;;;;;;;;;;5039053;28;20127;-89
2022/06/27 01:43:07;;;;;;;3.15;2.95;;;;;;;;;;5056333;28;20045;-89
2022/06/27 01:45:34;;;;;;;2.90;2.80;;;;;;;;;;5056862;28;20482;-89
2022/06/27 01:48:01;;;;;;;2.85;2.60;;;;;;;;;;5056331;28;20140;-89
2022/06/27 01:50:30;;;;;;;3.72;2.80;;;;;;;;;;5038709;28;20416;-89
2022/06/27 01:53:00;;;;;;;2.70;2.60;;;;;;;;;;5038728;28;20131;-89
2022/06/27 01:55:27;;;;;;;2.90;2.70;;;;;;;;;;5055966;28;20055;-89
2022/06/27 01:57:54;;;;;;;2.88;2.67;;;;;;;;;;5038451;28;20553;-88
2022/06/27 02:00:22;;;;;;;6.10;2.78;;;;;;;;;;5038365;28;20049;-89
2022/06/27 02:02:49;;;;;;;3.28;2.70;;;;;;;;;;5055906;28;20095;-89
2022/06/27 02:05:16;;;;;;;2.78;2.60;;;;;;;;;;5038357;28;20080;-88
2022/06/27 02:07:44;;;;;;;2.70;2.60;;;;;;;;;;5038560;28;20135;-89
2022/06/27 02:10:11;;;;;;;2.72;2.63;;;;;;;;;;5038020;28;20063;-88
2022/06/27 02:12:39;;;;;;;2.78;2.58;;;;;;;;;;5038357;28;20505;-90
2022/06/27 02:15:07;;;;;;;2.58;2.47;;;;;;;;;;5038008;28;20130;-89
2022/06/27 02:17:34;;;;;;;3.17;3.00;;;;;;;;;;5055738;28;20136;-89
2022/06/27 02:20:03;;;;;;;2.90;2.70;;;;;;;;;;5038193;28;20049;-89
2022/06/27 02:22:30;;;;;;;2.80;2.60;;;;;;;;;;5038101;28;20048;-89
2022/06/27 02:24:57;;;;;;;2.75;2.63;;;;;;;;;;5038007;28;20585;-89
2022/06/27 02:27:24;;;;;;;2.55;2.45;;;;;;;;;;5037875;28;20442;-89
2022/06/27 02:29:52;;;;;;;3.22;3.03;;;;;;;;;;5037837;28;20055;-89
2022/06/27 02:32:19;;;;;;;2.72;2.53;;;;;;;;;;5038209;28;20489;-89
2022/06/27 02:34:47;;;;;;;6.18;2.97;;;;;;;;;;5037573;28;20143;-89
2022/06/27 02:37:15;;;;;;;2.80;2.60;;;;;;;;;;5037570;28;20072;-88
2022/06/27 02:39:44;;;;;;;3.08;2.80;;;;;;;;;;5054450;28;20052;-89
2022/06/27 02:42:13;;;;;;;2.85;2.70;;;;;;;;;;5037606;28;20052;-88
2022/06/27 02:44:41;;;;;;;3.20;2.90;;;;;;;;;;5037687;28;20060;-88
2022/06/27 02:47:09;;;;;;;2.95;2.70;;;;;;;;;;5037766;28;20083;-88
2022/06/27 02:49:36;;;;;;;3.03;2.60;;;;;;;;;;5037422;28;20091;-88
2022/06/27 02:52:17;;;;;;;2.88;2.70;;;;;;;;;;5055143;28;20477;-89
2022/06/27 02:54:48;;;;;;;3.38;2.70;;;;;;;;;;5054766;28;20084;-89
2022/06/27 02:57:20;;;;;;;3.20;2.90;;;;;;;;;;5037807;28;20476;-89
2022/06/27 02:59:49;;;;;;;5.75;5.35;;;;;;;;;;5037413;28;20059;-89
2022/06/27 03:02:17;;;;;;;5.53;5.13;;;;;;;;;;5037223;28;20159;-89
2022/06/27 03:04:44;;;;;;;5.60;5.20;;;;;;;;;;5037046;28;20057;-89
2022/06/27 03:07:12;;;;;;;6.25;5.70;;;;;;;;;;5054750;28;20140;-88
2022/06/27 03:09:39;;;;;;;5.35;4.00;;;;;;;;;;5054521;28;20049;-88
2022/06/27 03:12:07;;;;;;;4.80;4.40;;;;;;;;;;5037075;28;20175;-89
2022/06/27 03:14:34;;;;;;;4.45;4.07;;;;;;;;;;5054662;28;20139;-89
2022/06/27 03:17:02;;;;;;;7.18;3.40;;;;;;;;;;5054414;28;20063;-88
2022/06/27 03:19:29;;;;;;;4.45;3.00;;;;;;;;;;5036949;28;20084;-89
2022/06/27 03:21:56;;;;;;;3.17;2.97;;;;;;;;;;5054248;28;20574;-89
2022/06/27 03:24:23;;;;;;;3.90;3.47;;;;;;;;;;5037103;28;20409;-88
2022/06/27 03:26:51;;;;;;;3.85;3.50;;;;;;;;;;5036658;28;20486;-88
2022/06/27 03:29:19;;;;;;;3.40;3.20;;;;;;;;;;5036658;28;20127;-88
2022/06/27 03:31:46;;;;;;;3.42;3.22;;;;;;;;;;5036620;28;20585;-88
2022/06/27 03:34:13;;;;;;;4.05;2.72;;;;;;;;;;5036440;28;20133;-88
2022/06/27 03:36:43;;;;;;;3.22;2.47;;;;;;;;;;5036762;28;20075;-88
2022/06/27 03:39:11;;;;;;;3.20;2.90;;;;;;;;;;5036367;28;20087;-89
2022/06/27 03:41:39;;;;;;;3.58;3.28;;;;;;;;;;5054024;28;20045;-88
2022/06/27 03:44:11;;;;;;;3.60;3.40;;;;;;;;;;5036390;28;20052;-89
2022/06/27 03:46:39;;;;;;;3.78;3.42;;;;;;;;;;5036216;28;20084;-89
2022/06/27 03:51:53;;;;;;;3.08;2.92;;;;;;;;;;5053358;28;20072;-87
2022/06/27 03:54:20;;;;;;;3.10;2.90;;;;;;;;;;5036249;28;20088;-90
2022/06/27 03:56:47;;;;;;;3.15;2.88;;;;;;;;;;5036413;28;20075;-88
2022/06/27 03:59:15;;;;;;;2.97;2.72;;;;;;;;;;5036308;28;20077;-89
2022/06/27 04:01:42;;;;;;;3.95;2.90;;;;;;;;;;5036873;28;20127;-90
2022/06/27 04:04:09;;;;;;;3.20;2.88;;;;;;;;;;5054104;28;20079;-89
2022/06/27 04:06:37;;;;;;;2.88;2.70;;;;;;;;;;5053908;28;20049;-88
2022/06/27 04:09:10;;;;;;;7.38;2.75;;;;;;;;;;5036834;28;20109;-89
2022/06/27 04:11:37;;;;;;;12.10;3.60;;;;;;;;;;5035755;28;20055;-87
2022/06/27 04:14:04;;;;;;;6.65;2.95;;;;;;;;;;5053487;28;20124;-88
2022/06/27 04:16:32;;;;;;;3.70;3.00;;;;;;;;;;5053527;28;20545;-89
2022/06/27 04:18:59;;;;;;;8.93;2.97;;;;;;;;;;5036233;28;20045;-89
2022/06/27 04:21:26;;;;;;;9.65;3.38;;;;;;;;;;5053209;28;20143;-89
2022/06/27 04:23:53;;;;;;;7.82;3.03;;;;;;;;;;5035923;28;20769;-89
2022/06/27 04:26:21;;;;;;;2.97;2.78;;;;;;;;;;5036053;28;20049;-89
2022/06/27 04:28:48;;;;;;;4.18;3.10;;;;;;;;;;5035994;28;20063;-88
2022/06/27 04:31:15;;;;;;;2.80;2.67;;;;;;;;;;5035642;28;20053;-89
2022/06/27 04:33:44;;;;;;;3.38;3.08;;;;;;;;;;5035636;28;20051;-88
2022/06/27 04:36:12;;;;;;;7.22;2.95;;;;;;;;;;5035834;28;20136;-89
2022/06/27 04:38:39;;;;;;;3.35;3.05;;;;;;;;;;5035482;28;20446;-89
2022/06/27 04:41:07;;;;;;;2.78;2.58;;;;;;;;;;5035936;28;20159;-89
2022/06/27 04:43:34;;;;;;;4.85;2.78;;;;;;;;;;5036207;28;20419;-89
2022/06/27 04:46:02;;;;;;;3.72;2.85;;;;;;;;;;5035811;28;20045;-89
2022/06/27 04:48:34;;;;;;;13.00;3.42;;;;;;;;;;5053434;28;20076;-90
2022/06/27 04:51:02;;;;;;;4.63;3.00;;;;;;;;;;5035760;28;20060;-89
2022/06/27 04:53:30;;;;;;;10.27;3.20;;;;;;;;;;5053197;28;20092;-89
2022/06/27 04:55:58;;;;;;;5.28;3.10;;;;;;;;;;5035640;28;20063;-88
2022/06/27 04:58:25;;;;;;;4.93;2.90;;;;;;;;;;5035911;28;20131;-89
2022/06/27 05:00:52;;;;;;;6.10;3.05;;;;;;;;;;5053282;28;20139;-89
2022/06/27 05:03:22;;;;;;;5.18;3.08;;;;;;;;;;5056680;28;20132;-89
2022/06/27 05:05:50;;;;;;;3.65;3.35;;;;;;;;;;5039690;28;20517;-91
2022/06/27 05:08:18;;;;;;;7.72;3.70;;;;;;;;;;5039677;28;20514;-89
2022/06/27 05:10:45;;;;;;;3.30;3.10;;;;;;;;;;5039384;28;20141;-90
2022/06/27 05:13:13;;;;;;;5.63;3.03;;;;;;;;;;5039831;28;20084;-89
2022/06/27 05:15:40;;;;;;;10.07;3.20;;;;;;;;;;5057047;28;20067;-89
2022/06/27 05:18:07;;;;;;;3.42;2.97;;;;;;;;;;5057071;28;20051;-89
2022/06/27 05:20:34;;;;;;;5.00;3.45;;;;;;;;;;5056856;28;20140;-89
2022/06/27 05:23:02;;;;;;;7.35;3.40;;;;;;;;;;5039679;28;20465;-90
2022/06/27 05:25:29;;;;;;;4.78;3.05;;;;;;;;;;5039522;28;20136;-90
2022/06/27 05:27:58;;;;;;;5.22;3.00;;;;;;;;;;5039301;28;20556;-89
2022/06/27 05:30:25;;;;;;;11.07;3.53;;;;;;;;;;5039452;28;20072;-89
2022/06/27 05:32:52;;;;;;;9.98;3.50;;;;;;;;;;5039169;28;20129;-89
2022/06/27 05:35:21;;;;;;;13.60;3.88;;;;;;;;;;5056770;28;20051;-89
2022/06/27 05:37:50;;;;;;;13.43;3.53;;;;;;;;;;5038897;28;20053;-89
2022/06/27 05:40:17;;;;;;;5.03;3.00;;;;;;;;;;5039405;28;20095;-90
2022/06/27 05:42:45;;;;;;;4.35;3.03;;;;;;;;;;5038823;28;20053;-89
2022/06/27 05:45:12;;;;;;;4.68;3.20;;;;;;;;;;5039083;28;20076;-89
2022/06/27 05:47:40;;;;;;;4.57;3.22;;;;;;;;;;5039081;28;20055;-89
2022/06/27 05:50:13;;;;;;;3.47;3.10;;;;;;;;;;5039935;28;20049;-90
2022/06/27 05:52:41;;;;;;;5.90;3.03;;;;;;;;;;5039027;28;20136;-89
2022/06/27 05:55:09;;;;;;;3.33;3.00;;;;;;;;;;5038678;28;20412;-89
2022/06/27 05:57:37;;;;;;;4.05;3.15;;;;;;;;;;5038879;28;20049;-91
2022/06/27 06:00:05;;;;;;;4.38;3.63;;;;;;;;;;5038747;28;20605;-87
2022/06/27 06:02:32;;;;;;;6.63;3.53;;;;;;;;;;5038801;28;20477;-90
2022/06/27 06:05:00;;;;;;;3.50;3.20;;;;;;;;;;5038428;28;20118;-90
2022/06/27 06:07:27;;;;;;;5.40;3.00;;;;;;;;;;5038559;28;20398;-90
2022/06/27 06:09:54;;;;;;;8.65;3.58;;;;;;;;;;5036966;28;20131;-88
2022/06/27 06:12:22;;;;;;;5.30;3.20;;;;;;;;;;5055729;28;20056;-91
2022/06/27 06:14:52;;;;;;;4.22;3.42;;;;;;;;;;5037765;28;20556;-88
2022/06/27 06:17:19;;;;;;;6.25;3.50;;;;;;;;;;5038787;28;20068;-90
2022/06/27 06:19:46;;;;;;;16.27;4.40;;;;;;;;;;5039225;28;20481;-89
2022/06/27 06:22:14;;;;;;;26.83;6.18;;;;;;;;;;5041762;28;20562;-90
2022/06/27 06:24:41;;;;;;;31.20;5.10;;;;;;;;;;5055642;28;20093;-89
2022/06/27 06:27:09;;;;;;;22.10;4.60;;;;;;;;;;5038380;28;20482;-88
2022/06/27 06:29:36;;;;;;;16.55;4.53;;;;;;;;;;5038229;28;20045;-89
2022/06/27 06:32:04;;;;;;;22.80;4.70;;;;;;;;;;5038329;28;20474;-90
2022/06/27 06:34:33;;;;;;;14.18;3.67;;;;;;;;;;5038371;28;20060;-89
2022/06/27 06:37:01;;;;;;;9.75;3.13;;;;;;;;;;5038396;28;20059;-88
2022/06/27 06:39:29;;;;;;;7.80;2.95;;;;;;;;;;5037659;28;20409;-89
2022/06/27 06:41:57;;;;;;;26.30;3.10;;;;;;;;;;5037850;28;20076;-90
2022/06/27 06:44:24;;;;;;;53.30;6.20;;;;;;;;;;5038064;28;20045;-91
2022/06/27 06:46:54;;;;;;;30.80;4.43;;;;;;;;;;5055591;28;20421;-89
2022/06/27 06:49:22;;;;;;;14.38;3.10;;;;;;;;;;5038296;28;20482;-91
2022/06/27 06:51:50;;;;;;;20.15;3.97;;;;;;;;;;5037817;28;20136;-90
2022/06/27 06:54:20;;;;;;;21.45;4.28;;;;;;;;;;5037892;28;20135;-89
2022/06/27 06:56:49;;;;;;;26.45;3.78;;;;;;;;;;5055147;28;20102;-90
2022/06/27 06:59:17;;;;;;;35.97;5.22;;;;;;;;;;5037905;28;20049;-89
2022/06/27 07:01:47;;;;;;;30.05;4.45;;;;;;;;;;5037861;28;20124;-89
2022/06/27 07:04:16;;;;;;;14.70;3.55;;;;;;;;;;5055039;28;20110;-90
2022/06/27 07:06:45;;;;;;;16.23;3.65;;;;;;;;;;5037452;28;20105;-89
2022/06/27 07:09:12;;;;;;;7.65;2.50;;;;;;;;;;5034422;28;20137;-92
2022/06/27 07:11:40;;;;;;;9.65;2.67;;;;;;;;;;5039534;28;20059;-91
2022/06/27 07:14:07;;;;;;;4.18;2.28;;;;;;;;;;5053931;28;20052;-88
2022/06/27 07:16:35;;;;;;;7.30;2.75;;;;;;;;;;5054153;28;20052;-89
2022/06/27 07:19:03;;;;;;;4.28;2.42;;;;;;;;;;5053986;28;20055;-89
2022/06/27 07:21:34;;;;;;;4.70;2.33;;;;;;;;;;5054801;28;20057;-88
2022/06/27 07:24:03;;;;;;;2.05;1.73;;;;;;;;;;5053828;28;20041;-90
2022/06/27 07:26:31;;;;;;;7.00;2.50;;;;;;;;;;5052889;28;20056;-89
2022/06/27 07:29:01;;;;;;;6.40;2.28;;;;;;;;;;5053772;28;20047;-89
2022/06/27 07:31:32;;;;;;;15.00;2.40;;;;;;;;;;5053472;28;20103;-90
2022/06/27 07:33:59;;;;;;;6.65;2.03;;;;;;;;;;5054250;28;20520;-87
2022/06/27 07:36:28;;;;;;;3.53;1.77;;;;;;;;;;5053630;28;20049;-89
2022/06/27 07:38:56;;;;;;;2.20;1.77;;;;;;;;;;5053351;28;20077;-88
2022/06/27 07:41:24;;;;;;;2.85;1.67;;;;;;;;;;5054405;28;20049;-89
2022/06/27 07:43:55;;;;;;;2.15;1.25;;;;;;;;;;5054231;28;20447;-89
2022/06/27 07:46:22;;;;;;;2.75;1.20;;;;;;;;;;5052953;28;20055;-89
2022/06/27 07:48:50;;;;;;;1.15;0.95;;;;;;;;;;5053686;28;20095;-88
2022/06/27 07:51:19;;;;;;;1.85;1.10;;;;;;;;;;5053040;28;20405;-89
2022/06/27 07:53:48;;;;;;;1.30;1.15;;;;;;;;;;5053631;28;20113;-90
2022/06/27 07:56:17;;;;;;;1.23;1.13;;;;;;;;;;5053534;28;20096;-91
2022/06/27 07:59:00;;;;;;;2.30;1.20;;;;;;;;;;5053142;28;20056;-85
2022/06/27 08:01:28;;;;;;;2.38;1.00;;;;;;;;;;5053967;28;20056;-88
2022/06/27 08:03:56;;;;;;;1.90;1.00;;;;;;;;;;5054149;28;20049;-87
2022/06/27 08:06:28;;;;;;;2.47;1.33;;;;;;;;;;5053160;28;20109;-86
2022/06/27 08:09:01;;;;;;;1.92;1.00;;;;;;;;;;5052286;28;20055;-86
2022/06/27 08:11:31;;;;;;;1.98;1.20;;;;;;;;;;5053704;28;20048;-88
2022/06/27 08:14:03;;;;;;;0.90;0.90;;;;;;;;;;5052959;28;20052;-88
2022/06/27 08:16:31;;;;;;;3.10;1.00;;;;;;;;;;5054123;28;20080;-87
2022/06/27 08:19:02;;;;;;;1.70;1.30;;;;;;;;;;5052909;28;20398;-88
2022/06/27 08:21:30;;;;;;;3.42;0.90;;;;;;;;;;5052696;28;20091;-87
2022/06/27 08:23:59;;;;;;;0.90;0.90;;;;;;;;;;5052109;28;20052;-87
2022/06/27 08:26:27;;;;;;;3.42;1.10;;;;;;;;;;5052513;28;20079;-86
2022/06/27 08:28:54;;;;;;;3.28;1.30;;;;;;;;;;5053793;28;20077;-88
2022/06/27 08:31:25;;;;;;;7.15;1.75;;;;;;;;;;5052830;28;20127;-87
2022/06/27 08:34:01;;;;;;;6.30;1.23;;;;;;;;;;5053865;28;20312;-88
2022/06/27 08:36:30;;;;;;;2.35;1.17;;;;;;;;;;5053017;28;20059;-92
2022/06/27 08:39:04;;;;;;;1.30;1.20;;;;;;;;;;5053203;28;20544;-87
2022/06/27 08:41:31;;;;;;;1.52;1.00;;;;;;;;;;5052426;28;20489;-87
2022/06/27 08:44:00;;;;;;;1.92;1.00;;;;;;;;;;5052530;28;20088;-87
2022/06/27 08:46:29;;;;;;;1.17;1.00;;;;;;;;;;5052925;28;20389;-87
2022/06/27 08:48:58;;;;;;;1.10;1.05;;;;;;;;;;5052258;28;20454;-90
2022/06/27 08:51:27;;;;;;;0.80;0.60;;;;;;;;;;5052204;28;20045;-87
2022/06/27 08:53:55;;;;;;;1.08;0.63;;;;;;;;;;5053127;28;20060;-86
2022/06/27 08:56:24;;;;;;;3.80;0.82;;;;;;;;;;5052765;28;20049;-90
2022/06/27 08:58:52;;;;;;;1.77;0.60;;;;;;;;;;5053189;28;20067;-92
2022/06/27 09:01:22;;;;;;;1.40;0.60;;;;;;;;;;5052162;28;20099;-87
2022/06/27 09:04:00;;;;;;;2.58;0.65;;;;;;;;;;5051967;28;20132;-93
2022/06/27 09:06:30;;;;;;;5.32;0.70;;;;;;;;;;5052647;28;20112;-87
2022/06/27 09:09:08;;;;;;;1.60;0.80;;;;;;;;;;5051713;28;20056;-91
2022/06/27 09:11:41;;;;;;;4.88;0.85;;;;;;;;;;5052158;28;20067;-90
2022/06/27 09:14:28;;;;;;;1.52;0.95;;;;;;;;;;5052100;28;20053;-87
2022/06/27 09:17:00;;;;;;;0.95;0.80;;;;;;;;;;5052961;28;20464;-90
2022/06/27 09:19:47;;;;;;;1.98;0.88;;;;;;;;;;5052099;28;20049;-90
2022/06/27 09:22:16;;;;;;;1.42;0.70;;;;;;;;;;5051967;28;20564;-88
2022/06/27 09:25:02;;;;;;;3.88;1.02;;;;;;;;;;5051693;28;20053;-88
2022/06/27 09:27:44;;;;;;;1.08;0.98;;;;;;;;;;5053287;28;20051;-88
2022/06/27 09:30:21;;;;;;;6.43;1.00;;;;;;;;;;5052546;28;20084;-86
2022/06/27 09:32:51;;;;;;;3.17;0.90;;;;;;;;;;5052035;28;20554;-91
2022/06/27 09:35:25;;;;;;;1.80;0.90;;;;;;;;;;5052028;28;20045;-89
2022/06/27 09:37:53;;;;;;;1.20;0.80;;;;;;;;;;5051751;28;20053;-87
2022/06/27 09:40:25;;;;;;;1.30;1.20;;;;;;;;;;5052234;28;20132;-93
2022/06/27 09:42:54;;;;;;;6.72;1.50;;;;;;;;;;5051986;28;20419;-89
2022/06/27 09:45:23;;;;;;;2.08;0.70;;;;;;;;;;5051883;28;20049;-90
2022/06/27 09:47:54;;;;;;;2.88;1.00;;;;;;;;;;5052560;28;20057;-93
2022/06/27 09:50:23;;;;;;;1.70;1.30;;;;;;;;;;5056227;28;20111;-91
2022/06/27 09:52:51;;;;;;;1.80;1.13;;;;;;;;;;5055158;28;20053;-86
2022/06/27 09:55:20;;;;;;;1.88;0.82;;;;;;;;;;5055204;28;20067;-89
2022/06/27 09:57:47;;;;;;;3.05;1.33;;;;;;;;;;5046956;28;20056;-88
2022/06/27 10:00:15;;;;;;;1.33;1.23;;;;;;;;;;5055806;28;20051;-89
2022/06/27 10:02:42;;;;;;;4.45;1.35;;;;;;;;;;5055209;28;20132;-87
2022/06/27 10:05:11;;;;;;;1.95;1.42;;;;;;;;;;5056218;28;20049;-84
2022/06/27 10:07:39;;;;;;;2.85;1.50;;;;;;;;;;5056188;28;20053;-88
2022/06/27 10:10:06;;;;;;;4.90;1.20;;;;;;;;;;5055946;28;20119;-88
2022/06/27 10:12:36;;;;;;;1.48;1.10;;;;;;;;;;5055887;28;20131;-91
2022/06/27 10:15:10;;;;;;;1.20;1.00;;;;;;;;;;5055598;28;20051;-91
2022/06/27 10:17:38;;;;;;;5.88;2.42;;;;;;;;;;5055139;28;20049;-89
2022/06/27 10:20:06;;;;;;;2.33;1.05;;;;;;;;;;5055257;28;20488;-91
2022/06/27 10:22:34;;;;;;;1.42;0.90;;;;;;;;;;5054992;28;20136;-89
2022/06/27 10:25:24;;;;;;;3.65;0.80;;;;;;;;;;5055872;28;20119;-94
2022/06/27 10:28:13;;;;;;;1.77;0.90;;;;;;;;;;5048507;28;20131;-89
2022/06/27 10:30:51;;;;;;;1.20;1.00;;;;;;;;;;5055447;28;20053;-88
2022/06/27 10:33:21;;;;;;;0.82;0.70;;;;;;;;;;5055145;28;20080;-86
2022/06/27 10:35:59;;;;;;;1.38;0.88;;;;;;;;;;5057102;28;20079;-89
2022/06/27 10:38:33;;;;;;;1.48;0.80;;;;;;;;;;5054173;28;20485;-87
2022/06/27 10:41:04;;;;;;;2.80;0.80;;;;;;;;;;5054706;28;20065;-92
2022/06/27 10:43:42;;;;;;;2.00;0.77;;;;;;;;;;5054446;28;20137;-88
2022/06/27 10:46:09;;;;;;;4.05;0.82;;;;;;;;;;5054703;28;20516;-90
2022/06/27 10:48:40;;;;;;;1.50;1.00;;;;;;;;;;5054599;28;20486;-89
2022/06/27 10:51:19;;;;;;;0.73;0.52;;;;;;;;;;5055668;28;20049;-90
2022/06/27 10:53:47;;;;;;;10.70;1.60;;;;;;;;;;5055333;28;20061;-88
2022/06/27 10:56:29;;;;;;;6.22;1.33;;;;;;;;;;5055446;28;20076;-92
2022/06/27 10:59:00;;;;;;;4.70;1.45;;;;;;;;;;5054428;28;20519;-89
2022/06/27 11:01:28;;;;;;;0.88;0.80;;;;;;;;;;5061766;28;20080;-89
2022/06/27 11:03:55;;;;;;;2.88;1.10;;;;;;;;;;5056977;28;20136;-89
2022/06/27 11:06:23;;;;;;;3.33;0.80;;;;;;;;;;5054811;28;20061;-90
2022/06/27 11:08:52;;;;;;;1.00;0.90;;;;;;;;;;5055560;28;20056;-90
2022/06/27 11:11:23;;;;;;;3.55;0.80;;;;;;;;;;5055424;28;20053;-90
2022/06/27 11:13:52;;;;;;;1.15;0.90;;;;;;;;;;5054166;28;20049;-92
2022/06/27 11:16:21;;;;;;;8.05;1.25;;;;;;;;;;5053647;28;20482;-86
2022/06/27 11:18:53;;;;;;;1.20;0.93;;;;;;;;;;5053731;28;20053;-96
2022/06/27 11:21:21;;;;;;;2.90;1.10;;;;;;;;;;5054935;28;20132;-90
2022/06/27 11:23:53;;;;;;;4.57;1.27;;;;;;;;;;5054177;28;20055;-86
2022/06/27 11:26:21;;;;;;;1.45;0.82;;;;;;;;;;5054949;28;20135;-90
2022/06/27 11:34:27;;;;;;;0.80;0.80;;;;;;;;;;5055035;28;20486;-92
2022/06/27 11:36:55;;;;;;;2.50;1.00;;;;;;;;;;5053988;28;20136;-88
2022/06/27 11:39:24;;;;;;;1.50;1.10;;;;;;;;;;5053246;28;20111;-89
2022/06/27 11:41:58;;;;;;;0.90;0.90;;;;;;;;;;5053208;28;20052;-88
2022/06/27 11:44:26;;;;;;;1.00;0.98;;;;;;;;;;5053337;28;20049;-87
2022/06/27 11:47:02;;;;;;;2.15;1.02;;;;;;;;;;5053386;28;20056;-87
2022/06/27 11:49:30;;;;;;;1.23;1.13;;;;;;;;;;5054402;28;20052;-89
2022/06/27 11:52:02;;;;;;;1.25;1.10;;;;;;;;;;5053127;28;20059;-89
2022/06/27 11:54:43;;;;;;;2.63;1.00;;;;;;;;;;5052998;28;20140;-87
2022/06/27 11:57:21;;;;;;;3.92;1.02;;;;;;;;;;5053159;28;20132;-90
2022/06/27 11:59:49;;;;;;;3.80;0.80;;;;;;;;;;5053571;28;20432;-91
2022/06/27 12:02:26;;;;;;;2.80;0.60;;;;;;;;;;5054234;28;20072;-93
2022/06/27 12:05:04;;;;;;;0.95;0.70;;;;;;;;;;5054122;28;20068;-93
2022/06/27 12:07:32;;;;;;;2.85;0.80;;;;;;;;;;5054198;28;20080;-95
2022/06/27 12:09:59;;;;;;;1.75;0.80;;;;;;;;;;5054203;28;20057;-95
2022/06/27 12:12:26;;;;;;;4.07;0.82;;;;;;;;;;5053465;28;20041;-91
2022/06/27 12:14:54;;;;;;;4.95;0.70;;;;;;;;;;5052996;28;20063;-88
2022/06/27 12:17:23;;;;;;;6.07;0.95;;;;;;;;;;5052887;28;20128;-90
2022/06/27 12:20:01;;;;;;;4.05;1.23;;;;;;;;;;5052925;28;20143;-93
2022/06/27 12:22:28;;;;;;;3.72;0.93;;;;;;;;;;5052907;28;20056;-90
2022/06/27 12:25:16;;;;;;;1.15;0.77;;;;;;;;;;5039175;28;20139;-90
2022/06/27 12:27:43;;;;;;;3.28;0.93;;;;;;;;;;5053378;28;20088;-91
2022/06/27 12:30:11;;;;;;;1.75;0.60;;;;;;;;;;5052970;28;20045;-92
2022/06/27 12:32:38;;;;;;;1.67;0.63;;;;;;;;;;5053941;28;20069;-94
2022/06/27 12:35:06;;;;;;;0.65;0.43;;;;;;;;;;5052734;28;20076;-92
2022/06/27 12:37:40;;;;;;;3.20;0.70;;;;;;;;;;5052793;28;20084;-91
2022/06/27 12:40:08;;;;;;;22.13;1.60;;;;;;;;;;5052171;28;20077;-93
2022/06/27 12:42:35;;;;;;;0.80;0.80;;;;;;;;;;5052597;28;20584;-92
2022/06/27 12:45:03;;;;;;;2.83;0.63;;;;;;;;;;5052698;28;20049;-91
2022/06/27 12:47:31;;;;;;;2.22;0.70;;;;;;;;;;5053265;28;20588;-89
2022/06/27 12:49:58;;;;;;;1.35;0.80;;;;;;;;;;5053171;28;20111;-91
2022/06/27 12:52:25;;;;;;;3.03;0.80;;;;;;;;;;5052048;28;20072;-88
2022/06/27 12:54:52;;;;;;;2.30;0.77;;;;;;;;;;5051760;28;20048;-87
2022/06/27 12:57:20;;;;;;;2.20;0.70;;;;;;;;;;5052357;28;20095;-91
2022/06/27 12:59:47;;;;;;;2.03;0.60;;;;;;;;;;5053379;28;20140;-92
2022/06/27 13:02:16;;;;;;;1.20;0.60;;;;;;;;;;5053251;28;20120;-92
2022/06/27 13:04:43;;;;;;;1.63;0.93;;;;;;;;;;5053266;28;20099;-95
2022/06/27 13:07:11;;;;;;;2.70;0.82;;;;;;;;;;5051934;28;20151;-87
2022/06/27 13:09:39;;;;;;;1.13;0.80;;;;;;;;;;5051969;28;20148;-90
2022/06/27 13:12:07;;;;;;;1.65;0.80;;;;;;;;;;5052291;28;20476;-90
2022/06/27 13:14:35;;;;;;;6.45;0.80;;;;;;;;;;5052123;28;20045;-89
2022/06/27 13:17:03;;;;;;;2.38;1.10;;;;;;;;;;5052876;28;20060;-89
2022/06/27 13:19:31;;;;;;;3.67;0.73;;;;;;;;;;5059947;28;20095;-87
2022/06/27 13:21:58;;;;;;;1.52;1.02;;;;;;;;;;5063074;28;20052;-88
2022/06/27 13:24:25;;;;;;;4.57;1.08;;;;;;;;;;5057274;28;20080;-87
2022/06/27 13:26:53;;;;;;;1.33;0.68;;;;;;;;;;5056898;28;20084;-90
2022/06/27 13:29:21;;;;;;;2.20;0.70;;;;;;;;;;5056906;28;20405;-87
2022/06/27 13:31:54;;;;;;;1.45;0.90;;;;;;;;;;5055667;28;20049;-89
2022/06/27 13:34:22;;;;;;;6.28;0.60;;;;;;;;;;5056435;28;20442;-87
2022/06/27 13:37:09;;;;;;;1.65;0.80;;;;;;;;;;5056486;28;20056;-90
2022/06/27 13:39:38;;;;;;;1.08;0.80;;;;;;;;;;5056514;28;20060;-89
2022/06/27 13:42:05;;;;;;;1.02;0.50;;;;;;;;;;5055777;28;20132;-89
2022/06/27 13:44:33;;;;;;;5.53;0.73;;;;;;;;;;5056537;28;20140;-89
2022/06/27 13:47:01;;;;;;;2.15;0.70;;;;;;;;;;5056607;28;20486;-87
2022/06/27 13:49:29;;;;;;;0.93;0.65;;;;;;;;;;5022856;28;20596;-91
2022/06/27 13:51:56;;;;;;;0.98;0.70;;;;;;;;;;5055429;28;20052;-89
2022/06/27 13:54:23;;;;;;;6.00;0.90;;;;;;;;;;5055345;28;20080;-88
2022/06/27 13:56:50;;;;;;;2.85;0.90;;;;;;;;;;5055688;28;20132;-90
2022/06/27 13:59:17;;;;;;;0.55;0.45;;;;;;;;;;5055202;28;20585;-87
2022/06/27 14:01:45;;;;;;;0.65;0.60;;;;;;;;;;5055084;28;20175;-88
2022/06/27 14:04:13;;;;;;;0.85;0.65;;;;;;;;;;5056080;28;20137;-89
2022/06/27 14:09:26;;;;;;;10.60;1.27;;;;;;;;;;5055812;28;20053;-89
2022/06/27 14:11:54;;;;;;;2.38;1.30;;;;;;;;;;5055069;28;20045;-93
2022/06/27 14:14:21;;;;;;;2.40;0.70;;;;;;;;;;5054886;28;20087;-92
2022/06/27 14:16:48;;;;;;;2.28;0.80;;;;;;;;;;5057595;28;20076;-89
2022/06/27 14:19:17;;;;;;;6.13;1.23;;;;;;;;;;5056186;28;20048;-89
2022/06/27 14:21:44;;;;;;;1.20;0.80;;;;;;;;;;5054921;28;20045;-90
2022/06/27 14:24:11;;;;;;;0.80;0.70;;;;;;;;;;5055555;28;20052;-89
2022/06/27 14:26:39;;;;;;;2.67;0.90;;;;;;;;;;5054651;28;20103;-91
2022/06/27 14:29:06;;;;;;;1.58;0.80;;;;;;;;;;5054885;28;20471;-91
2022/06/27 14:31:33;;;;;;;4.15;0.90;;;;;;;;;;5054862;28;20127;-90
2022/06/27 14:34:01;;;;;;;4.00;1.20;;;;;;;;;;5055503;28;20053;-88
2022/06/27 14:36:28;;;;;;;7.95;1.38;;;;;;;;;;5054930;28;20076;-92
2022/06/27 14:38:56;;;;;;;2.35;1.13;;;;;;;;;;5053880;28;20497;-88
2022/06/27 14:41:23;;;;;;;2.30;0.80;;;;;;;;;;5054415;28;20044;-88
2022/06/27 14:43:50;;;;;;;3.15;1.00;;;;;;;;;;5054783;28;20231;-89
2022/06/27 14:46:18;;;;;;;3.20;1.00;;;;;;;;;;5054327;28;20091;-88
2022/06/27 14:48:45;;;;;;;7.38;1.33;;;;;;;;;;5054237;28;20056;-89
2022/06/27 14:51:12;;;;;;;3.42;1.27;;;;;;;;;;5054433;28;20140;-88
2022/06/27 14:53:39;;;;;;;5.05;1.42;;;;;;;;;;5054255;28;20080;-89
2022/06/27 14:56:06;;;;;;;4.25;1.20;;;;;;;;;;5054342;28;20433;-88
2022/06/27 14:58:34;;;;;;;6.47;1.13;;;;;;;;;;5054056;28;20103;-88
2022/06/27 15:01:01;;;;;;;2.70;1.05;;;;;;;;;;5054035;28;20124;-87
2022/06/27 15:03:28;;;;;;;4.05;0.90;;;;;;;;;;5053965;28;20053;-84
2022/06/27 15:05:56;;;;;;;1.30;0.88;;;;;;;;;;5053493;28;20111;-86